Time;durP1;ratioP1;P1;durP2;ratioP2;P2;SDS_P1;SDS_P2;PMS_P1;PMS_P2;Temp;Humidity;BMP_temperature;BMP_pressure;BME280_temperature;BME280_humidity;BME280_pressure;Samples;Min_cycle;Max_cycle;Signal;HPM_P1;HPM_P2
2023/09/03 00:01:07;;;;;;;8.23;7.43;;;17.60;99.90;;;;;;6081116;23;20020;-89
2023/09/03 00:03:33;;;;;;;10.38;8.98;;;17.70;99.90;;;;;;6104605;23;20338;-89
2023/09/03 00:05:59;;;;;;;10.70;9.18;;;17.60;99.90;;;;;;6057735;23;20018;-89
2023/09/03 00:08:24;;;;;;;17.90;13.55;;;17.70;99.90;;;;;;6081291;23;20084;-89
2023/09/03 00:10:52;;;;;;;16.17;13.75;;;17.80;99.90;;;;;;6103886;23;20332;-89
2023/09/03 00:13:19;;;;;;;16.23;13.73;;;17.90;99.90;;;;;;6105670;23;20017;-89
2023/09/03 00:15:45;;;;;;;15.93;11.38;;;17.90;99.90;;;;;;6080815;23;20024;-90
2023/09/03 00:18:14;;;;;;;16.73;13.95;;;17.90;99.90;;;;;;6081416;23;20013;-89
2023/09/03 00:20:41;;;;;;;18.30;14.15;;;18.00;99.90;;;;;;6103847;23;20484;-89
2023/09/03 00:23:09;;;;;;;21.25;15.95;;;18.00;99.90;;;;;;6104749;23;20014;-88
2023/09/03 00:25:38;;;;;;;21.30;15.52;;;18.10;99.90;;;;;;6104575;23;20364;-88
2023/09/03 00:28:04;;;;;;;15.30;13.70;;;18.00;99.90;;;;;;6104982;23;20014;-89
2023/09/03 00:30:30;;;;;;;14.15;12.57;;;18.10;99.90;;;;;;6104258;23;20024;-89
2023/09/03 00:32:55;;;;;;;13.18;11.77;;;18.00;99.90;;;;;;6081334;23;20014;-90
2023/09/03 00:35:22;;;;;;;13.32;12.02;;;17.90;99.90;;;;;;6104748;23;20036;-89
2023/09/03 00:37:48;;;;;;;10.48;9.13;;;17.90;99.90;;;;;;6080332;23;20076;-90
2023/09/03 00:40:14;;;;;;;12.00;8.57;;;17.70;99.90;;;;;;6056762;23;20380;-89
2023/09/03 00:42:39;;;;;;;8.23;7.35;;;17.60;99.90;;;;;;6080607;23;20017;-90
2023/09/03 00:45:06;;;;;;;8.00;6.60;;;17.60;99.90;;;;;;6104563;23;20009;-90
2023/09/03 00:47:37;;;;;;;9.50;6.50;;;17.50;99.90;;;;;;6104349;23;20351;-89
2023/09/03 00:50:04;;;;;;;10.75;9.65;;;17.40;99.90;;;;;;6104617;23;20036;-88
2023/09/03 00:52:30;;;;;;;8.27;7.47;;;17.50;99.90;;;;;;6079774;23;20447;-89
2023/09/03 00:54:56;;;;;;;9.50;8.60;;;17.40;99.90;;;;;;6104464;23;20075;-88
2023/09/03 00:57:23;;;;;;;9.05;8.10;;;17.40;99.90;;;;;;6081084;23;20039;-89
2023/09/03 00:59:50;;;;;;;10.10;9.15;;;17.30;99.90;;;;;;6129125;23;20084;-88
2023/09/03 01:02:19;;;;;;;9.68;8.77;;;17.40;99.90;;;;;;6104145;23;20014;-89
2023/09/03 01:04:45;;;;;;;11.43;10.32;;;17.40;99.90;;;;;;6104037;23;20099;-89
2023/09/03 01:07:13;;;;;;;12.85;11.55;;;17.50;99.90;;;;;;6079148;23;20052;-89
2023/09/03 01:09:40;;;;;;;14.25;12.13;;;17.50;99.90;;;;;;6103418;23;20021;-89
2023/09/03 01:12:12;;;;;;;12.60;11.30;;;17.60;99.90;;;;;;6104534;23;20145;-89
2023/09/03 01:15:01;;;;;;;15.65;11.10;;;17.70;99.90;;;;;;6104171;23;20013;-89
2023/09/03 01:18:05;;;;;;;14.63;13.07;;;17.70;99.90;;;;;;6103925;23;20058;-89
2023/09/03 01:20:37;;;;;;;14.63;12.15;;;17.80;99.90;;;;;;6102904;23;20017;-88
2023/09/03 01:23:09;;;;;;;15.70;12.35;;;17.80;99.90;;;;;;6128920;23;20020;-88
2023/09/03 01:25:53;;;;;;;16.90;13.70;;;17.90;99.90;;;;;;6103761;23;20018;-88
2023/09/03 01:28:23;;;;;;;16.00;13.43;;;17.90;99.90;;;;;;6128272;23;20081;-88
2023/09/03 01:30:51;;;;;;;13.88;11.60;;;17.90;99.90;;;;;;6103639;23;20010;-88
2023/09/03 01:33:18;;;;;;;21.00;15.50;;;17.90;99.90;;;;;;6080354;23;20093;-89
2023/09/03 01:35:45;;;;;;;19.27;15.52;;;17.90;99.90;;;;;;6103613;23;20022;-89
2023/09/03 01:38:11;;;;;;;20.45;16.02;;;17.90;99.90;;;;;;6079892;23;20016;-88
2023/09/03 01:40:41;;;;;;;18.38;15.27;;;17.90;99.90;;;;;;6103004;23;20681;-89
2023/09/03 01:43:10;;;;;;;16.98;14.50;;;17.90;99.90;;;;;;6104664;23;20435;-88
2023/09/03 01:45:52;;;;;;;22.90;17.15;;;18.20;99.90;;;;;;6103910;23;20316;-88
2023/09/03 01:48:49;;;;;;;20.85;17.20;;;18.00;99.90;;;;;;6080555;23;20064;-88
2023/09/03 01:51:31;;;;;;;22.83;17.17;;;18.00;99.90;;;;;;6104306;23;20604;-89
2023/09/03 01:54:06;;;;;;;23.63;17.20;;;18.10;99.90;;;;;;6103637;23;20068;-88
2023/09/03 01:56:39;;;;;;;21.92;17.90;;;18.00;99.90;;;;;;6103586;23;20014;-88
2023/09/03 01:59:19;;;;;;;21.85;17.45;;;18.10;99.90;;;;;;6103913;23;20040;-89
2023/09/03 02:01:46;;;;;;;20.48;17.40;;;18.10;99.90;;;;;;6098102;23;20020;-88
2023/09/03 02:04:12;;;;;;;21.98;17.33;;;18.00;99.90;;;;;;6104192;23;20021;-89
2023/09/03 02:06:38;;;;;;;21.85;17.67;;;18.00;99.90;;;;;;6103371;23;20775;-89
2023/09/03 02:09:04;;;;;;;23.23;18.20;;;18.00;99.90;;;;;;6079980;23;20080;-89
2023/09/03 02:11:30;;;;;;;20.73;17.55;;;17.90;99.90;;;;;;6103488;23;20320;-88
2023/09/03 02:13:56;;;;;;;18.60;16.60;;;17.90;99.90;;;;;;6103147;23;20018;-88
2023/09/03 02:16:23;;;;;;;16.67;14.75;;;17.80;99.90;;;;;;6104089;23;20014;-88
2023/09/03 02:18:48;;;;;;;17.33;14.73;;;17.80;99.90;;;;;;6103708;23;20009;-87
2023/09/03 02:21:14;;;;;;;18.70;16.58;;;17.70;99.90;;;;;;6103927;23;20784;-88
2023/09/03 02:23:40;;;;;;;17.88;15.35;;;17.80;99.90;;;;;;6104016;23;20010;-88
2023/09/03 02:26:05;;;;;;;20.55;17.23;;;17.70;99.90;;;;;;6103550;23;20014;-88
2023/09/03 02:28:33;;;;;;;17.55;15.75;;;17.80;99.90;;;;;;6079537;23;20019;-88
2023/09/03 02:30:59;;;;;;;18.48;14.88;;;17.70;99.90;;;;;;6104835;23;20045;-88
2023/09/03 02:33:25;;;;;;;16.35;13.57;;;17.60;99.90;;;;;;6060180;23;20459;-89
2023/09/03 02:35:50;;;;;;;15.50;13.10;;;17.70;99.90;;;;;;6109135;23;20021;-88
2023/09/03 02:38:16;;;;;;;16.55;13.13;;;17.60;99.90;;;;;;6082892;23;20016;-88
2023/09/03 02:40:42;;;;;;;18.92;14.15;;;17.60;99.90;;;;;;6104711;23;20040;-87
2023/09/03 02:43:08;;;;;;;18.88;12.75;;;17.50;99.90;;;;;;6106179;23;20493;-88
2023/09/03 02:45:33;;;;;;;13.18;11.75;;;17.50;99.90;;;;;;6106464;23;20017;-88
2023/09/03 02:48:00;;;;;;;13.85;11.50;;;17.40;99.90;;;;;;6081818;23;20100;-88
2023/09/03 02:50:26;;;;;;;11.52;9.68;;;17.40;99.90;;;;;;6127430;23;20027;-88
2023/09/03 02:52:52;;;;;;;12.50;10.90;;;17.20;99.90;;;;;;6055531;23;20100;-88
2023/09/03 02:55:19;;;;;;;14.98;12.05;;;17.20;99.90;;;;;;6105352;23;20097;-87
2023/09/03 02:57:46;;;;;;;14.50;12.40;;;17.20;99.90;;;;;;6080663;23;20021;-88
2023/09/03 03:00:12;;;;;;;14.05;12.50;;;17.30;99.90;;;;;;6082072;23;20075;-87
2023/09/03 03:02:38;;;;;;;14.77;12.10;;;17.30;99.90;;;;;;6105326;23;20009;-88
2023/09/03 03:05:04;;;;;;;16.27;12.40;;;17.30;99.90;;;;;;6105381;23;20404;-88
2023/09/03 03:07:30;;;;;;;15.95;13.30;;;17.30;99.90;;;;;;6105310;23;20025;-88
2023/09/03 03:09:56;;;;;;;13.82;12.32;;;17.30;99.90;;;;;;6104751;23;20039;-87
2023/09/03 03:12:21;;;;;;;16.60;12.15;;;17.30;99.90;;;;;;6057411;23;20013;-88
2023/09/03 03:14:48;;;;;;;14.50;11.85;;;17.30;99.90;;;;;;6080721;23;20013;-88
2023/09/03 03:17:14;;;;;;;13.75;11.52;;;17.40;99.90;;;;;;6104721;23;20013;-87
2023/09/03 03:19:43;;;;;;;13.80;12.40;;;17.30;99.90;;;;;;6104676;23;20093;-89
2023/09/03 03:22:11;;;;;;;13.27;10.85;;;17.30;99.90;;;;;;6081142;23;20009;-88
2023/09/03 03:24:37;;;;;;;13.02;11.63;;;17.20;99.90;;;;;;6105306;23;20013;-89
2023/09/03 03:27:03;;;;;;;13.85;11.63;;;17.30;99.90;;;;;;6104716;23;20017;-89
2023/09/03 03:29:29;;;;;;;15.77;12.35;;;17.30;99.90;;;;;;6104943;23;20020;-89
2023/09/03 03:31:54;;;;;;;16.10;13.15;;;17.30;99.90;;;;;;6080644;23;20407;-89
2023/09/03 03:34:20;;;;;;;16.63;14.57;;;17.20;99.90;;;;;;6080654;23;20018;-88
2023/09/03 03:36:46;;;;;;;17.17;13.13;;;17.30;99.90;;;;;;6104554;23;20088;-88
2023/09/03 03:39:12;;;;;;;19.58;15.00;;;17.20;99.90;;;;;;6105360;23;20427;-89
2023/09/03 03:41:38;;;;;;;15.63;13.98;;;17.30;99.90;;;;;;6081082;23;20768;-88
2023/09/03 03:44:03;;;;;;;17.98;14.32;;;17.40;99.90;;;;;;6105092;23;20033;-89
2023/09/03 03:46:29;;;;;;;17.17;13.93;;;17.30;99.90;;;;;;6105271;23;20438;-88
2023/09/03 03:48:56;;;;;;;17.50;13.10;;;17.30;99.90;;;;;;6081826;23;20020;-89
2023/09/03 03:51:21;;;;;;;16.13;13.43;;;17.30;99.90;;;;;;6105011;23;20014;-89
2023/09/03 03:53:50;;;;;;;18.42;13.38;;;17.40;99.90;;;;;;6104626;23;20014;-89
2023/09/03 03:56:16;;;;;;;14.68;11.90;;;17.30;99.90;;;;;;6105158;23;20013;-89
2023/09/03 03:58:44;;;;;;;15.50;12.55;;;17.30;99.90;;;;;;6105661;23;20021;-88
2023/09/03 04:01:24;;;;;;;13.00;11.15;;;17.40;99.90;;;;;;6104534;23;20017;-88
2023/09/03 04:03:54;;;;;;;13.15;11.75;;;17.30;99.90;;;;;;6104788;23;20009;-88
2023/09/03 04:06:20;;;;;;;14.68;12.15;;;17.20;99.90;;;;;;6105069;23;20020;-89
2023/09/03 04:08:47;;;;;;;14.00;12.23;;;17.30;99.90;;;;;;6104658;23;20384;-89
2023/09/03 04:11:16;;;;;;;13.18;11.00;;;17.20;99.90;;;;;;6105071;23;20316;-89
2023/09/03 04:13:45;;;;;;;12.00;10.02;;;17.20;99.90;;;;;;6105014;23;20013;-88
2023/09/03 04:16:15;;;;;;;11.48;9.93;;;17.00;99.90;;;;;;6104748;23;20368;-88
2023/09/03 04:18:42;;;;;;;10.93;9.82;;;17.00;99.90;;;;;;6105095;23;20016;-89
2023/09/03 04:21:08;;;;;;;10.73;9.38;;;16.90;99.90;;;;;;6104342;23;20447;-88
2023/09/03 04:23:34;;;;;;;10.93;9.82;;;16.80;99.90;;;;;;6104462;23;20435;-88
2023/09/03 04:26:00;;;;;;;11.20;10.00;;;16.70;99.90;;;;;;6104697;23;20014;-88
2023/09/03 04:28:27;;;;;;;13.23;11.48;;;16.70;99.90;;;;;;6105058;23;20072;-89
2023/09/03 04:30:59;;;;;;;11.65;10.45;;;16.70;99.90;;;;;;6104782;23;20021;-89
2023/09/03 04:33:25;;;;;;;12.02;10.80;;;16.80;99.90;;;;;;6105260;23;20346;-89
2023/09/03 04:36:00;;;;;;;11.65;10.55;;;16.80;99.90;;;;;;6104497;23;20443;-89
2023/09/03 04:38:29;;;;;;;11.10;10.00;;;16.40;99.90;;;;;;6104309;23;20015;-88
2023/09/03 04:41:05;;;;;;;13.85;11.88;;;16.80;99.90;;;;;;6104681;23;20013;-91
2023/09/03 04:43:37;;;;;;;13.88;11.77;;;16.80;99.90;;;;;;6104127;23;20331;-88
2023/09/03 04:46:03;;;;;;;12.23;11.00;;;16.90;99.90;;;;;;6128900;23;20024;-90
2023/09/03 04:48:29;;;;;;;13.70;12.30;;;16.90;99.90;;;;;;6080611;23;20435;-89
2023/09/03 04:50:58;;;;;;;13.45;11.95;;;16.90;99.90;;;;;;6103278;23;20013;-89
2023/09/03 04:53:24;;;;;;;14.65;11.82;;;16.90;99.90;;;;;;6104266;23;20477;-90
2023/09/03 04:55:50;;;;;;;15.15;12.75;;;17.00;99.90;;;;;;6103979;23;20017;-89
2023/09/03 04:58:15;;;;;;;17.10;12.32;;;17.10;99.90;;;;;;6104536;23;20021;-90
2023/09/03 05:00:41;;;;;;;13.90;12.23;;;17.10;99.90;;;;;;6079803;23;20017;-89
2023/09/03 05:03:07;;;;;;;19.40;14.52;;;17.10;99.90;;;;;;6103592;23;20097;-89
2023/09/03 05:05:41;;;;;;;14.60;12.18;;;17.10;99.90;;;;;;6104312;23;20014;-89
2023/09/03 05:08:08;;;;;;;16.05;12.88;;;17.10;99.90;;;;;;6103921;23;20025;-89
2023/09/03 05:10:34;;;;;;;14.23;12.10;;;17.20;99.90;;;;;;6080683;23;20025;-89
2023/09/03 05:13:02;;;;;;;14.50;11.75;;;17.10;99.90;;;;;;6104021;23;20021;-90
2023/09/03 05:15:27;;;;;;;13.60;12.20;;;17.20;99.90;;;;;;6104644;23;20021;-88
2023/09/03 05:17:53;;;;;;;13.13;11.77;;;17.20;99.90;;;;;;6104037;23;20723;-89
2023/09/03 05:20:19;;;;;;;13.48;12.13;;;17.30;99.90;;;;;;6128985;23;20064;-88
2023/09/03 05:22:45;;;;;;;13.70;11.75;;;17.30;99.90;;;;;;6104281;23;20088;-89
2023/09/03 05:25:10;;;;;;;16.00;13.45;;;17.30;99.90;;;;;;6080638;23;20454;-88
2023/09/03 05:27:39;;;;;;;16.17;12.73;;;17.40;99.90;;;;;;6104437;23;20335;-90
2023/09/03 05:30:06;;;;;;;14.32;12.00;;;17.40;99.90;;;;;;6057050;23;20021;-90
2023/09/03 05:32:34;;;;;;;15.07;12.48;;;17.50;99.90;;;;;;6128974;23;20014;-88
2023/09/03 05:34:59;;;;;;;12.60;10.93;;;17.40;99.90;;;;;;6080161;23;20092;-90
2023/09/03 05:37:27;;;;;;;16.88;13.05;;;17.50;99.90;;;;;;6080165;23;20049;-89
2023/09/03 05:39:53;;;;;;;13.35;11.98;;;17.50;99.90;;;;;;6081074;23;20450;-89
2023/09/03 05:42:19;;;;;;;18.25;14.75;;;17.50;99.90;;;;;;6078544;23;20017;-89
2023/09/03 05:44:48;;;;;;;19.80;15.20;;;17.60;99.90;;;;;;6101100;23;20335;-90
2023/09/03 05:47:18;;;;;;;17.92;15.50;;;17.60;99.90;;;;;;6104538;23;20160;-90
2023/09/03 05:49:44;;;;;;;21.67;16.88;;;17.80;99.90;;;;;;6104815;23;20072;-91
2023/09/03 05:52:09;;;;;;;19.77;16.77;;;17.70;99.90;;;;;;6104303;23;20024;-90
2023/09/03 05:54:38;;;;;;;18.75;15.05;;;17.80;99.90;;;;;;6104267;23;20014;-90
2023/09/03 05:57:04;;;;;;;18.48;14.60;;;17.80;99.90;;;;;;6080575;23;20018;-90
2023/09/03 05:59:29;;;;;;;19.45;15.50;;;17.90;99.90;;;;;;6104513;23;20048;-90
2023/09/03 06:01:57;;;;;;;18.73;15.45;;;18.00;99.90;;;;;;6104480;23;20089;-88
2023/09/03 06:04:23;;;;;;;19.25;15.10;;;17.90;99.90;;;;;;6104622;23;20021;-89
2023/09/03 06:06:48;;;;;;;19.85;15.80;;;17.90;99.90;;;;;;6104587;23;20017;-89
2023/09/03 06:09:18;;;;;;;17.63;14.32;;;17.90;99.90;;;;;;6056797;23;20096;-91
2023/09/03 06:11:48;;;;;;;18.20;15.05;;;18.10;99.90;;;;;;6081726;23;20017;-89
2023/09/03 06:14:14;;;;;;;17.80;15.98;;;18.10;99.90;;;;;;6104076;23;20029;-89
2023/09/03 06:16:43;;;;;;;17.70;15.85;;;18.20;99.90;;;;;;6106038;23;20022;-90
2023/09/03 06:19:09;;;;;;;19.08;16.80;;;18.30;99.90;;;;;;6083424;23;20014;-89
2023/09/03 06:21:35;;;;;;;18.67;16.52;;;18.20;99.90;;;;;;6083035;23;20010;-90
2023/09/03 06:24:01;;;;;;;19.05;16.65;;;18.30;99.90;;;;;;6085253;23;20014;-88
2023/09/03 06:26:26;;;;;;;18.27;15.52;;;18.40;99.90;;;;;;6107309;23;20402;-89
2023/09/03 06:28:53;;;;;;;19.73;15.75;;;18.50;99.90;;;;;;6106708;23;20496;-90
2023/09/03 06:31:19;;;;;;;15.60;13.95;;;18.50;99.90;;;;;;6106988;23;20017;-90
2023/09/03 06:33:45;;;;;;;14.98;13.40;;;18.50;99.90;;;;;;6105919;23;20084;-89
2023/09/03 06:36:11;;;;;;;15.07;13.52;;;18.80;99.90;;;;;;6081520;23;20024;-89
2023/09/03 06:38:39;;;;;;;14.93;13.43;;;18.70;99.90;;;;;;6105690;23;20041;-89
2023/09/03 06:41:05;;;;;;;15.50;13.30;;;18.90;99.90;;;;;;6106060;23;20464;-90
2023/09/03 06:43:31;;;;;;;14.45;13.00;;;18.60;99.90;;;;;;6105777;23;20044;-90
2023/09/03 06:45:57;;;;;;;15.50;14.00;;;19.10;99.90;;;;;;6081411;23;20013;-90
2023/09/03 06:48:22;;;;;;;14.73;13.23;;;19.20;99.90;;;;;;6105416;23;20010;-91
2023/09/03 06:50:49;;;;;;;14.13;12.57;;;19.20;99.90;;;;;;6105907;23;20068;-91
2023/09/03 06:53:20;;;;;;;13.27;11.85;;;19.30;99.90;;;;;;6106224;23;20055;-89
2023/09/03 06:55:55;;;;;;;16.02;11.85;;;19.30;99.90;;;;;;6083312;23;20021;-91
2023/09/03 06:58:32;;;;;;;14.52;10.80;;;19.50;99.90;;;;;;6106247;23;20343;-91
2023/09/03 07:01:18;;;;;;;12.82;11.52;;;19.50;99.90;;;;;;6083461;23;20092;-91
2023/09/03 07:03:49;;;;;;;11.30;10.15;;;19.60;99.90;;;;;;6106339;23;20014;-90
2023/09/03 07:06:18;;;;;;;11.25;9.23;;;19.70;99.90;;;;;;6058823;23;20153;-91
2023/09/03 07:08:49;;;;;;;10.35;9.35;;;20.10;99.90;;;;;;6105468;23;20458;-91
2023/09/03 07:11:18;;;;;;;10.65;9.60;;;19.90;99.90;;;;;;6083426;23;20017;-91
2023/09/03 07:13:47;;;;;;;10.27;9.27;;;20.30;99.90;;;;;;6081872;23;20017;-90
2023/09/03 07:16:15;;;;;;;10.18;8.75;;;20.10;99.90;;;;;;6105266;23;20017;-91
2023/09/03 07:30:17;;;;;;;8.18;6.63;;;20.50;99.90;;;;;;5924921;24;20374;-93
2023/09/03 07:33:40;;;;;;;9.25;6.15;;;20.70;99.90;;;;;;5816848;24;20019;-91
2023/09/03 07:36:56;;;;;;;6.72;6.07;;;20.80;99.90;;;;;;5774275;24;20523;-92
2023/09/03 07:40:32;;;;;;;6.78;5.60;;;20.90;99.90;;;;;;5762460;24;20025;-92
2023/09/03 07:43:53;;;;;;;8.52;5.97;;;21.00;99.90;;;;;;5817571;24;20598;-91
2023/09/03 07:47:02;;;;;;;5.75;5.22;;;21.20;99.90;;;;;;5808086;24;20471;-91
2023/09/03 07:50:30;;;;;;;6.13;4.85;;;21.20;99.90;;;;;;5846509;24;20021;-91
2023/09/03 08:00:58;;;;;;;4.30;3.83;;;21.50;99.90;;;;;;5981188;24;20555;-91
2023/09/03 08:04:03;;;;;;;5.78;4.10;;;21.60;99.90;;;;;;5966108;23;20028;-90
2023/09/03 08:06:53;;;;;;;4.25;3.30;;;22.00;99.90;;;;;;5985564;23;20062;-91
2023/09/03 08:09:49;;;;;;;4.93;3.30;;;21.30;99.90;;;;;;5965153;23;20020;-91
2023/09/03 08:12:37;;;;;;;4.55;3.00;;;21.30;99.90;;;;;;6082798;23;20025;-90
2023/09/03 08:18:06;;;;;;;4.25;3.05;;;21.80;99.90;;;;;;6075435;23;20100;-90
2023/09/03 08:21:02;;;;;;;3.33;3.03;;;21.70;99.90;;;;;;6085153;23;20017;-91
2023/09/03 08:24:01;;;;;;;4.65;3.30;;;21.90;99.90;;;;;;6090919;23;20048;-93
2023/09/03 08:26:41;;;;;;;3.28;2.78;;;21.70;99.90;;;;;;6083502;23;20013;-91
2023/09/03 08:33:18;;;;;;;;;;;;;;;;;;;;;
2023/09/03 08:36:07;;;;;;;3.17;2.50;;;22.10;99.90;;;;;;6159033;23;20022;-92
2023/09/03 08:57:01;;;;;;;;;;;;;;;;;;;;;
2023/09/03 09:00:43;;;;;;;3.03;2.22;;;22.80;99.90;;;;;;6108739;23;20024;-92
2023/09/03 09:03:18;;;;;;;2.42;1.98;;;22.80;99.90;;;;;;6114046;23;20387;-91
2023/09/03 09:06:05;;;;;;;2.30;1.90;;;23.20;99.90;;;;;;6081793;23;20013;-92
2023/09/03 09:09:15;;;;;;;4.78;2.00;;;23.40;99.90;;;;;;6106936;23;20104;-91
2023/09/03 09:12:07;;;;;;;3.03;2.10;;;23.40;99.90;;;;;;6031654;23;20034;-90
2023/09/03 09:15:01;;;;;;;4.68;2.13;;;23.90;99.90;;;;;;6013298;23;20015;-90
2023/09/03 09:18:08;;;;;;;2.47;1.70;;;23.30;99.90;;;;;;6018425;23;20026;-92
2023/09/03 09:21:30;;;;;;;;;;;;;;;;;;;;;
2023/09/03 09:25:04;;;;;;;;;;;;;;;;;;;;;
2023/09/03 09:28:09;;;;;;;3.30;2.03;;;23.90;99.90;;;;;;5979688;24;20020;-91
2023/09/03 09:30:56;;;;;;;2.80;1.77;;;23.90;99.90;;;;;;5958076;24;20106;-90
2023/09/03 09:34:45;;;;;;;;;;;;;;;;;;;;;
2023/09/03 09:37:48;;;;;;;3.40;2.03;;;23.90;99.90;;;;;;5795891;24;20774;-92
2023/09/03 09:48:31;;;;;;;;;;;24.40;99.90;;;;;;5934615;23;20019;-91
2023/09/03 09:58:53;;;;;;;2.00;1.77;;;25.20;99.90;;;;;;6043977;23;20111;-91
2023/09/03 10:01:49;;;;;;;2.08;1.70;;;25.40;99.90;;;;;;5974495;23;20015;-91
2023/09/03 10:04:41;;;;;;;2.47;1.52;;;25.60;99.90;;;;;;6029489;23;20022;-90
2023/09/03 10:07:41;;;;;;;2.55;1.80;;;25.60;99.90;;;;;;6058160;23;20054;-91
2023/09/03 10:10:24;;;;;;;2.45;1.80;;;25.90;99.90;;;;;;6054120;23;20022;-91
2023/09/03 10:12:55;;;;;;;;;;;26.20;99.90;;;;;;6055451;23;20045;-91
2023/09/03 10:15:36;;;;;;;4.55;1.70;;;25.90;99.90;;;;;;6034400;23;20003;-91
2023/09/03 10:18:30;;;;;;;3.22;1.58;;;26.10;99.90;;;;;;6053563;23;20026;-93
2023/09/03 10:21:39;;;;;;;2.20;1.60;;;26.20;99.90;;;;;;6071333;23;20040;-91
2023/09/03 10:25:00;;;;;;;;;;;;;;;;;;;;;
2023/09/03 10:28:20;;;;;;;2.53;1.60;;;26.60;99.90;;;;;;6096605;23;20072;-91
2023/09/03 10:30:54;;;;;;;3.00;1.70;;;26.40;99.90;;;;;;6112463;23;20021;-91
2023/09/03 10:33:35;;;;;;;;;;;;;;;;;;;;;
2023/09/03 10:36:33;;;;;;;3.53;1.90;;;27.00;99.90;;;;;;6135221;23;20049;-91
2023/09/03 10:42:52;;;;;;;3.50;1.75;;;26.80;99.90;;;;;;6045535;23;20018;-90
2023/09/03 10:45:31;;;;;;;2.10;1.38;;;27.00;99.90;;;;;;6019791;23;20086;-92
2023/09/03 10:48:05;;;;;;;2.17;1.80;;;27.20;99.90;;;;;;5976024;23;20023;-91
2023/09/03 10:51:17;;;;;;;2.08;1.55;;;27.10;99.90;;;;;;6018787;23;20054;-92
2023/09/03 10:53:51;;;;;;;2.03;1.52;;;27.20;99.90;;;;;;5913691;24;20021;-92
2023/09/03 10:57:14;;;;;;;2.50;1.65;;;27.10;99.90;;;;;;6008874;23;20026;-93
2023/09/03 11:00:21;;;;;;;1.67;1.58;;;26.90;99.90;;;;;;6136055;23;20013;-93
2023/09/03 11:02:53;;;;;;;1.98;1.60;;;27.00;99.90;;;;;;6103846;23;20014;-91
2023/09/03 11:05:26;;;;;;;2.28;1.40;;;27.20;99.90;;;;;;6109767;23;20014;-91
2023/09/03 11:08:49;;;;;;;2.13;1.40;;;27.30;99.90;;;;;;6109587;23;20022;-92
2023/09/03 11:11:25;;;;;;;1.60;1.30;;;27.20;99.90;;;;;;6115976;23;20092;-91
2023/09/03 11:14:11;;;;;;;2.42;1.40;;;27.00;99.90;;;;;;6109115;23;20334;-92
2023/09/03 11:17:41;;;;;;;1.98;1.63;;;26.90;99.90;;;;;;6087077;23;20017;-92
2023/09/03 11:20:38;;;;;;;1.58;1.27;;;27.00;99.90;;;;;;5994455;23;20011;-93
2023/09/03 11:23:20;;;;;;;2.50;1.40;;;27.10;99.90;;;;;;6109989;23;20022;-92
2023/09/03 11:25:49;;;;;;;1.98;1.60;;;27.10;99.90;;;;;;6106509;23;20028;-91
2023/09/03 11:28:36;;;;;;;3.05;1.60;;;27.10;99.90;;;;;;6109732;23;20014;-93
2023/09/03 11:31:48;;;;;;;1.85;1.38;;;27.30;99.90;;;;;;6109360;23;20065;-92
2023/09/03 11:34:48;;;;;;;2.50;1.27;;;27.20;99.90;;;;;;6112128;23;20365;-91
2023/09/03 11:38:12;;;;;;;1.65;1.15;;;27.00;99.90;;;;;;6111609;23;20097;-91
2023/09/03 11:41:18;;;;;;;2.38;1.25;;;27.20;99.90;;;;;;6096987;23;20016;-93
2023/09/03 11:43:53;;;;;;;2.17;1.35;;;27.10;99.90;;;;;;6047647;23;20021;-91
2023/09/03 11:46:25;;;;;;;2.20;1.50;;;27.20;99.90;;;;;;6113683;23;20044;-91
2023/09/03 11:52:15;;;;;;;2.72;1.48;;;27.40;99.90;;;;;;6119479;23;20022;-90
2023/09/03 11:54:41;;;;;;;;;;;27.50;99.90;;;;;;6113088;23;20014;-90
2023/09/03 11:57:13;;;;;;;1.88;1.10;;;27.30;99.90;;;;;;6110278;23;19920;-90
2023/09/03 12:00:31;;;;;;;1.90;1.40;;;27.00;99.90;;;;;;6107410;23;20092;-91
2023/09/03 12:03:06;;;;;;;1.58;1.35;;;26.70;99.90;;;;;;6100852;23;20040;-90
2023/09/03 12:05:34;;;;;;;2.35;1.17;;;27.00;99.90;;;;;;6127577;23;20404;-91
2023/09/03 12:08:09;;;;;;;1.45;1.30;;;26.90;99.90;;;;;;6113612;23;20032;-92
2023/09/03 12:10:42;;;;;;;3.33;1.45;;;26.90;99.90;;;;;;6086301;23;20025;-92
2023/09/03 12:13:16;;;;;;;;;;;27.00;99.90;;;;;;6109267;23;20037;-92
2023/09/03 12:15:50;;;;;;;1.42;1.20;;;27.00;99.90;;;;;;6107685;23;19913;-93
2023/09/03 12:21:39;;;;;;;1.98;1.42;;;27.10;99.90;;;;;;6131751;23;20057;-91
2023/09/03 12:24:30;;;;;;;2.30;1.25;;;26.90;99.90;;;;;;6133585;23;20021;-91
2023/09/03 12:27:04;;;;;;;1.50;1.40;;;27.10;99.90;;;;;;6082354;23;20028;-92
2023/09/03 12:29:36;;;;;;;;;;;27.20;99.90;;;;;;6108636;23;20020;-90
2023/09/03 12:32:05;;;;;;;2.22;1.27;;;26.90;99.90;;;;;;6106206;23;20015;-91
2023/09/03 12:35:32;;;;;;;5.03;1.50;;;27.10;99.90;;;;;;6104206;23;20017;-91
2023/09/03 12:41:28;;;;;;;4.32;1.80;;;27.00;99.90;;;;;;5999324;23;20024;-92
2023/09/03 12:44:04;;;;;;;2.78;1.75;;;27.20;99.90;;;;;;6102917;23;20106;-92
2023/09/03 12:46:36;;;;;;;3.17;1.25;;;27.00;99.90;;;;;;6104748;23;20431;-92
2023/09/03 12:49:21;;;;;;;3.17;1.95;;;27.20;99.90;;;;;;6106517;23;20013;-91
2023/09/03 12:51:57;;;;;;;2.08;1.50;;;27.20;99.90;;;;;;6108790;23;20013;-92
2023/09/03 12:54:29;;;;;;;2.85;1.90;;;27.30;99.90;;;;;;6104573;23;20049;-91
2023/09/03 12:56:55;;;;;;;1.70;1.50;;;27.50;99.90;;;;;;6082880;23;20014;-90
2023/09/03 12:59:21;;;;;;;1.63;1.40;;;27.40;99.90;;;;;;6057674;23;20439;-90
2023/09/03 13:01:55;;;;;;;2.70;1.20;;;27.20;99.90;;;;;;6130046;23;20013;-94
2023/09/03 13:04:21;;;;;;;2.30;1.27;;;27.30;99.90;;;;;;6056692;23;20101;-91
2023/09/03 13:06:50;;;;;;;2.63;1.30;;;27.40;99.90;;;;;;6057401;23;20025;-90
2023/09/03 13:09:16;;;;;;;1.85;1.10;;;27.50;99.90;;;;;;6105070;23;20106;-91
2023/09/03 13:11:44;;;;;;;1.40;1.10;;;27.40;99.90;;;;;;6080382;23;20521;-91
2023/09/03 13:14:10;;;;;;;1.83;1.10;;;27.50;99.90;;;;;;6081392;23;20099;-89
2023/09/03 13:16:43;;;;;;;1.70;1.13;;;27.50;99.90;;;;;;6081399;23;20045;-93
2023/09/03 13:19:09;;;;;;;1.55;1.00;;;27.60;99.90;;;;;;6058426;23;20009;-92
2023/09/03 13:21:38;;;;;;;1.35;1.08;;;27.80;99.90;;;;;;6082051;23;20123;-90
2023/09/03 13:24:11;;;;;;;1.55;1.15;;;28.00;99.90;;;;;;6079592;23;20017;-92
2023/09/03 13:29:48;;;;;;;1.73;1.15;;;27.90;99.90;;;;;;6107052;23;20025;-90
2023/09/03 13:32:15;;;;;;;1.80;1.20;;;28.10;99.90;;;;;;6108477;23;20017;-91
2023/09/03 13:34:45;;;;;;;2.00;1.17;;;28.10;99.90;;;;;;6107555;23;20021;-91
2023/09/03 13:37:11;;;;;;;1.52;1.20;;;27.60;99.90;;;;;;6106315;23;20367;-91
2023/09/03 13:39:37;;;;;;;2.38;1.45;;;27.60;99.90;;;;;;6083507;23;20435;-90
2023/09/03 13:42:06;;;;;;;3.25;1.30;;;27.60;99.90;;;;;;6082926;23;20020;-92
2023/09/03 13:44:32;;;;;;;1.60;1.23;;;27.50;99.90;;;;;;6080214;23;20010;-90
2023/09/03 13:46:58;;;;;;;1.42;1.00;;;27.40;99.90;;;;;;6129370;23;20096;-92
2023/09/03 13:49:26;;;;;;;1.50;1.20;;;27.30;99.90;;;;;;6081874;23;20017;-92
2023/09/03 13:51:52;;;;;;;1.40;1.20;;;27.30;99.90;;;;;;6107708;23;20056;-92
2023/09/03 13:54:31;;;;;;;1.83;1.17;;;27.20;99.90;;;;;;6081961;23;20017;-90
2023/09/03 13:57:26;;;;;;;1.65;1.10;;;27.50;99.90;;;;;;6081355;23;20072;-92
2023/09/03 13:59:57;;;;;;;;;;;28.00;99.90;;;;;;6107219;23;20096;-92
2023/09/03 14:02:28;;;;;;;1.88;1.05;;;27.80;99.90;;;;;;6084222;23;19916;-91
2023/09/03 14:05:01;;;;;;;2.15;1.10;;;28.30;99.90;;;;;;6110313;23;20017;-92
2023/09/03 14:07:35;;;;;;;2.10;1.13;;;28.20;99.90;;;;;;6108210;23;20064;-91
2023/09/03 14:10:01;;;;;;;;;;;28.10;99.90;;;;;;6068061;23;20033;-92
2023/09/03 14:12:27;;;;;;;2.15;1.27;;;27.90;99.90;;;;;;6113733;23;19917;-91
2023/09/03 14:18:27;;;;;;;1.50;1.33;;;27.90;99.90;;;;;;6102268;23;20026;-91
2023/09/03 14:21:46;;;;;;;1.63;1.27;;;27.90;99.90;;;;;;6086654;23;20009;-91
2023/09/03 14:24:26;;;;;;;2.22;1.40;;;27.80;99.90;;;;;;6086164;23;20025;-93
2023/09/03 14:26:52;;;;;;;2.95;1.50;;;27.70;99.90;;;;;;6063165;23;20096;-91
2023/09/03 14:30:36;;;;;;;2.00;1.40;;;27.20;99.90;;;;;;6083719;23;20017;-92
2023/09/03 14:34:19;;;;;;;3.50;1.73;;;27.70;99.90;;;;;;6159313;23;20024;-91
2023/09/03 14:37:07;;;;;;;1.73;1.38;;;27.30;99.90;;;;;;6108447;23;20017;-92
2023/09/03 14:39:44;;;;;;;1.88;1.30;;;27.20;99.90;;;;;;6087646;23;20067;-92
2023/09/03 14:42:41;;;;;;;3.25;1.90;;;27.40;99.90;;;;;;6111648;23;20045;-92
2023/09/03 14:45:16;;;;;;;2.60;1.60;;;27.20;99.90;;;;;;6098437;23;20024;-91
2023/09/03 14:47:45;;;;;;;3.90;1.80;;;27.00;99.90;;;;;;6056892;23;20024;-92
2023/09/03 14:50:14;;;;;;;3.08;1.70;;;27.00;99.90;;;;;;6083220;23;20067;-92
2023/09/03 14:53:22;;;;;;;;;;;;;;;;;;;;;
2023/09/03 14:56:32;;;;;;;2.45;1.70;;;26.80;99.90;;;;;;6030700;23;20048;-91